aviador You're here:

ETAR Decoded Metar

RAMSTEIN in GERMANY
Report Time2017-10-17 20:16:00
UTC Time2017-10-17 20:30:10
Flight Rules vfr VFR
WindCalm
Visibility9000 m
Phenomena:Mist
Patches Fog
Clouds:Few 000 Hf
CeilingNone
Temp09°C (ISA -4)
Dew Point09°C (100% RH)
AAT8.8°C
QNH1019 hPa
Density Alt203 ft
Elevation781 ft
Report Wrong Elevation
Raw Report
ETAR 172016Z 00000KT 9000 R26/0550VP1500 BR CLR 09/09 A3008 RMK
AO2A VIS 1400V9999 VIS 0600 RWY08 VIS 0400 RWY09 BCFG FEW000
SLP192 $=

Extra information for ETAR:More info

Metar Taf Metar & Taf Last 4 Metars F.Rules Stats Wind Profile Meteogram Temp Stats Airport Information Weather charts Add Link Nearby VenuesMetar ALERT Operation Metar Decoded Social comments